Soaring Guidance
Issued by NWS Reno, NV

Home | Current Version | Previous Version | Text Only | Print | Product List | Glossary On
Versions: 1 2 3 4 5 6 7 8 9 10 11 12 13
000
UXUS97 KREV 291348
SRGREV

SOARING FORECAST
NATIONAL WEATHER SERVICE - RENO NV
700 AM PDT FRI APR 29 2016

THIS SOARING FORECAST IS FOR THE EASTERN SIERRA AND WESTERN NEVADA
WITH SPECIFIC INDICES FOR THE GREATER RENO AREA.

THIS FORECAST IS PREPARED DAILY BY 700 AM AND IS NOT UPDATED.

FOR CURRENT FLIGHT CONDITIONS...FORECASTS...AND ADVISORIES...ACCESS
YOUR LOCAL BRIEFING OUTLET OR FLIGHT SERVICE STATION.

*******************************************************************
FORECASTED LOCAL INDICES FOR RENO:        TODAY     YESTERDAY
FORECASTED MAX TEMP AT RENO (DEG F).....     68          61
FORECASTED TRIGGER TEMPERATURE (DEG F)..     52          48
   EXCEEDED YESTERDAY BY 955 AM PDT
FORECASTED MAXIMUM ALTITUDE (FT MSL)....  13700       17900
FORECASTED SOARING INDEX (FPM)..........    651        1017
FORECASTED K-INDEX.........VALID 18Z....     20          24
FORECASTED K-INDEX.........VALID 00Z....     23          24
FORECASTED LIFTED INDEX....VALID 18Z....      5           2
FORECASTED LIFTED INDEX....VALID 00Z....      2           4

AFTERNOON WINDS ALOFT FORECAST
MSL (FT) WIND/TEMP
9000  2921/+03
10000 2920/+00
12000 2919/-05
14000 2922/-09
16000 3026/-13
18000 3138/-18
24000 3266/-29
30000 3289/-45
34000 3295/-53
39000 3377/-59

SLIDE MOUNTAIN DATA:
     DATE       TIME     TEMP  DEWPT   RH         WIND (MPH)
                        (F)   (F)           | DIR  SPEED GUST
2016-04-29    05:50      27    22     87    | 322   11   18
2016-04-29    05:30      27    22     87    | 331    9   16
2016-04-29    05:20      27    22     85    | 329   12   21
2016-04-29    05:00      27    22     84    | 307   14   21

RENO TAF FORECAST:
KRNO 291120Z 2912/3012 28008KT P6SM SCT090 BKN180
     FM292000 30015G25KT P6SM SCT060 BKN110
     FM300300 34016G28KT 5SM SHRA SCT018 OVC030
     FM300700 34014KT P6SM VCSH SCT030 OVC045

CARSON CITY TAF FORECAST:
KCXP 291120Z 2912/3012 27005KT P6SM SCT080 BKN180
     FM292000 27014G22KT P6SM SCT050 BKN110
     FM300400 32016G24KT 5SM SHRA SCT015 OVC025
     FM300800 33014KT P6SM VCSH BKN030 OVC040

OUTLOOK FOR THE RENO-CARSON CITY-MINDEN AREA:
.SATURDAY...MOSTLY CLOUDY WITH ISOLATED SHOWERS IN THE MORNING...
THEN PARTLY CLOUDY IN THE AFTERNOON. SNOW LEVEL 5000 FEET RISING
TO 6500 FEET. HIGHS 57 TO 62. NORTHEAST WINDS 10 TO 20 MPH WITH
GUSTS UP TO 30 MPH.

SUNRISE AND SUNSET
APRIL 29 2016.........SUNRISE   602 AM PDT   SUNSET   751 PM PDT
APRIL 30 2016.........SUNRISE   601 AM PDT   SUNSET   752 PM PDT


USA.gov is the U.S. government's official web portal to all federal, state and local government web resources and services.